Flight Track Log - Related Links

Times and Time Zones

All times are in EDT time to prevent confusion due to time zone crossing. See the N311JE flight status page for this flight to view local times or setup timezone preferences in your user account.

Time Position Orientation Groundspeed Altitude Reporting Facility
EDT Latitude Longitude Course Direction KTS MPH feet Rate Location/Type
Wed 08:13:50 PM 41.9167 -88.2833 292° West 110 127 1,600  Level Chicago TRACON
Wed 08:14:50 PM 41.9167 -88.3167 270° West 105 121 2,400 800 Climbing Chicago TRACON
Wed 08:15:50 PM 41.9167 -88.3500 270° West 100 115 3,200 725 Climbing Chicago TRACON
Wed 08:16:21 PM 41.9156 -88.3586 260° West 106 122 3,500 452 Climbing Chicago Center
Wed 08:17:23 PM 41.9103 -88.4042 261° West 105 121 3,900 240 Climbing Chicago Center
Wed 08:18:26 PM 41.9008 -88.4542 256° West 127 146 4,000 97 Climbing Chicago Center
Wed 08:19:00 PM 41.9968 -88.5168 292° West  Level FlightAware Approximate
Wed 08:19:27 PM 41.9106 -88.4942 288° West 142 163 4,100  Level Chicago Center
Wed 08:20:30 PM 41.9383 -88.5439 307° West 141 162 4,100 -48 Level Chicago Center
Wed 08:21:32 PM 41.9606 -88.5989 299° West 140 161 4,000 -48 Descending Chicago Center
Wed 08:22:34 PM 41.9814 -88.6444 302° West 142 163 4,000  Level Chicago Center
Wed 08:23:36 PM 42.0064 -88.6847 310° West 143 165 4,000  Level Chicago Center
Wed 08:24:38 PM 42.0222 -88.7342 293° West 142 163 4,000  Level Chicago Center
Wed 08:25:40 PM 42.0458 -88.7764 307° West 144 166 4,000  Level Chicago Center
Wed 08:26:42 PM 42.0706 -88.8317 301° West 146 168 4,000  Level Chicago Center
Wed 08:27:44 PM 42.0875 -88.8811 295° West 150 173 4,000  Level Chicago Center
Wed 08:28:47 PM 42.0650 -88.9364 241° Southwest 168 193 4,000  Level Chicago Center
Wed 08:29:49 PM 42.0456 -88.9861 242° Southwest 155 178 4,000  Level Chicago Center
Wed 08:30:51 PM 42.0250 -89.0369 241° Southwest 137 158 4,000 -336 Level Chicago Center
Wed 08:31:54 PM 42.0075 -89.0836 243° Southwest 137 158 3,300 -629 Descending Chicago Center
Wed 08:32:55 PM 42.0317 -89.1128 318° Northwest 148 170 2,700 -439 Descending Chicago Center
Wed 08:33:57 PM 42.0786 -89.1072 North 144 166 2,400 -290 Descending Chicago Center
Wed 08:35:00 PM 42.1193 -89.0980 10° North  Level FlightAware Approximate
Wed 08:42:00 PM 42.1833 -89.0833 North  Level FlightAware Approximate
Wed 08:43:00 PM 42.1954 -89.0972 North  Level Estimated

Login

Don't have an account? Register now (free) for customized features, flight alerts, and more!